Time;durP1;ratioP1;P1;durP2;ratioP2;P2;SDS_P1;SDS_P2;PMS_P1;PMS_P2;Temp;Humidity;BMP_temperature;BMP_pressure;BME280_temperature;BME280_humidity;BME280_pressure;Samples;Min_cycle;Max_cycle;Signal;HPM_P1;HPM_P2
2022/08/29 00:01:25;;;;;;;;;;;;;;;27.77;46.12;96914.44;5075418;28;20368;-28
2022/08/29 00:03:54;;;;;;;;;;;;;;;27.80;46.17;96909.84;5075288;28;19908;-28
2022/08/29 00:06:19;;;;;;;;;;;;;;;27.79;46.00;96911.13;5075537;28;19908;-28
2022/08/29 00:08:44;;;;;;;;;;;;;;;27.80;45.73;96912.63;5075550;28;19909;-27
2022/08/29 00:11:10;;;;;;;;;;;;;;;27.79;45.87;96913.91;5057277;28;19909;-28
2022/08/29 00:13:35;;;;;;;;;;;;;;;27.80;46.05;96926.56;5075269;28;19977;-28
2022/08/29 00:16:00;;;;;;;;;;;;;;;27.78;45.72;96915.94;5075275;28;19908;-29
2022/08/29 00:18:26;;;;;;;;;;;;;;;27.78;46.06;96917.97;5075077;28;20321;-27
2022/08/29 00:20:51;;;;;;;;;;;;;;;27.78;45.68;96917.97;5075011;28;19951;-28
2022/08/29 00:23:17;;;;;;;;;;;;;;;27.76;46.13;96923.31;5075007;28;20331;-28
2022/08/29 00:25:42;;;;;;;;;;;;;;;27.77;46.10;96916.47;5075032;28;19913;-28
2022/08/29 00:28:07;;;;;;;;;;;;;;;27.77;45.60;96919.25;5074804;28;19909;-28
2022/08/29 00:30:33;;;;;;;;;;;;;;;27.76;46.07;96928.91;5075125;28;19915;-27
2022/08/29 00:32:58;;;;;;;;;;;;;;;27.79;45.83;96930.63;5075107;28;20360;-28
2022/08/29 00:35:28;;;;;;;;;;;;;;;27.77;45.92;96930.41;5074852;28;19913;-28
2022/08/29 00:37:54;;;;;;;;;;;;;;;27.77;45.70;96935.97;5074715;28;19908;-28
2022/08/29 00:40:22;;;;;;;;;;;;;;;27.77;45.85;96933.94;5074459;28;19912;-28
2022/08/29 00:42:47;;;;;;;;;;;;;;;27.75;45.70;96925.38;5074525;28;19916;-28
2022/08/29 00:45:13;;;;;;;;;;;;;;;27.76;45.84;96929.66;5074494;28;19920;-27
2022/08/29 00:47:40;;;;;;;;;;;;;;;27.74;45.75;96937.03;5074781;28;19909;-27
2022/08/29 00:50:07;;;;;;;;;;;;;;;27.75;45.46;96930.19;5074271;28;19908;-28
2022/08/29 00:52:33;;;;;;;;;;;;;;;27.76;45.84;96928.91;5074432;28;20278;-28
2022/08/29 00:54:59;;;;;;;;;;;;;;;27.77;45.73;96924.84;5074269;28;19915;-28
2022/08/29 00:57:27;;;;;;;;;;;;;;;27.78;45.79;96929.13;5074237;28;19919;-27
2022/08/29 00:59:52;;;;;;;;;;;;;;;27.75;45.67;96927.41;5074373;28;19919;-27
2022/08/29 01:02:18;;;;;;;;;;;;;;;27.75;45.67;96925.38;5074138;28;19912;-28
2022/08/29 01:04:44;;;;;;;;;;;;;;;27.76;45.70;96920.53;5074396;28;20358;-28
2022/08/29 01:07:10;;;;;;;;;;;;;;;27.76;45.68;96918.50;5074195;28;19908;-27
2022/08/29 01:09:36;;;;;;;;;;;;;;;27.76;45.60;96921.28;5074260;28;20408;-27
2022/08/29 01:12:17;;;;;;;;;;;;;;;27.74;45.86;96925.88;5073891;28;19916;-30
2022/08/29 01:14:48;;;;;;;;;;;;;;;27.72;45.91;96922.88;5074138;28;20251;-28
2022/08/29 01:17:15;;;;;;;;;;;;;;;27.74;45.34;96909.16;5074095;28;19908;-27
2022/08/29 01:19:43;;;;;;;;;;;;;;;27.74;45.78;96920.31;5073848;28;19913;-28
2022/08/29 01:22:12;;;;;;;;;;;;;;;27.74;45.75;96926.63;5073962;28;19908;-28
2022/08/29 01:24:40;;;;;;;;;;;;;;;27.72;45.71;96920.84;5073924;28;19915;-27
2022/08/29 01:27:06;;;;;;;;;;;;;;;27.73;45.43;96918.81;5074063;28;19916;-28
2022/08/29 01:29:33;;;;;;;;;;;;;;;27.71;45.68;96918.56;5073899;28;20414;-28
2022/08/29 01:31:58;;;;;;;;;;;;;;;27.72;45.91;96918.06;5073760;28;19908;-27
2022/08/29 01:34:25;;;;;;;;;;;;;;;27.69;45.82;96910.03;5073844;28;20377;-28
2022/08/29 01:36:52;;;;;;;;;;;;;;;27.72;45.56;96918.06;5073658;28;19908;-27
2022/08/29 01:39:20;;;;;;;;;;;;;;;27.68;45.84;96908.50;5073672;28;19912;-29
2022/08/29 01:41:46;;;;;;;;;;;;;;;27.73;46.07;96910.44;5073651;28;19916;-28
2022/08/29 01:44:13;;;;;;;;;;;;;;;27.73;45.76;96916.03;5073543;28;19938;-29
2022/08/29 01:46:39;;;;;;;;;;;;;;;27.72;45.83;96920.09;5073428;28;19908;-28
2022/08/29 01:49:06;;;;;;;;;;;;;;;27.73;45.97;96916.03;5073670;28;19970;-28
2022/08/29 01:51:32;;;;;;;;;;;;;;;27.74;46.06;96920.31;5073625;28;19959;-28
2022/08/29 01:53:57;;;;;;;;;;;;;;;27.72;46.14;96920.84;5073183;28;20317;-28
2022/08/29 01:56:25;;;;;;;;;;;;;;;27.72;45.91;96914.50;5073008;28;19916;-28
2022/08/29 01:58:51;;;;;;;;;;;;;;;27.71;45.91;96918.56;5071341;28;20362;-28
2022/08/29 02:01:19;;;;;;;;;;;;;;;27.72;45.90;96925.66;5072616;28;19966;-27
2022/08/29 02:03:45;;;;;;;;;;;;;;;27.69;46.37;96912.81;5073628;28;19962;-28
2022/08/29 02:06:10;;;;;;;;;;;;;;;27.74;46.09;96915.50;5073442;28;19942;-29
2022/08/29 02:08:38;;;;;;;;;;;;;;;27.74;46.31;96920.31;5073264;28;20370;-28
2022/08/29 02:11:08;;;;;;;;;;;;;;;27.73;46.05;96916.03;5073519;28;19909;-27
2022/08/29 02:13:34;;;;;;;;;;;;;;;27.70;46.39;96917.06;5073384;28;19915;-28
2022/08/29 02:15:59;;;;;;;;;;;;;;;27.70;46.46;96911.50;5073555;28;19909;-28
2022/08/29 02:18:24;;;;;;;;;;;;;;;27.68;46.27;96914.84;5073273;28;19908;-27
2022/08/29 02:20:50;;;;;;;;;;;;;;;27.71;46.08;96913.75;5073331;28;19919;-28
2022/08/29 02:23:15;;;;;;;;;;;;;;;27.70;46.63;96917.06;5073410;28;19912;-27
2022/08/29 02:25:40;;;;;;;;;;;;;;;27.72;46.53;96911.72;5073204;28;19908;-29
2022/08/29 02:28:06;;;;;;;;;;;;;;;27.70;46.41;96905.94;5073200;28;19915;-28
2022/08/29 02:30:32;;;;;;;;;;;;;;;27.71;46.02;96904.66;5073555;28;19913;-27
2022/08/29 02:32:57;;;;;;;;;;;;;;;27.71;46.50;96904.66;5073299;28;19916;-28
2022/08/29 02:35:23;;;;;;;;;;;;;;;27.70;46.66;96908.72;5073185;28;19991;-27
2022/08/29 02:37:49;;;;;;;;;;;;;;;27.70;46.22;96903.91;5073314;28;19940;-28
2022/08/29 02:40:15;;;;;;;;;;;;;;;27.71;46.48;96905.41;5073330;28;19912;-28
2022/08/29 02:42:40;;;;;;;;;;;;;;;27.69;46.31;96908.00;5072887;28;20339;-28
2022/08/29 02:45:06;;;;;;;;;;;;;;;27.69;46.66;96907.22;5073318;28;19995;-28
2022/08/29 02:47:35;;;;;;;;;;;;;;;27.70;46.67;96911.50;5073118;28;19908;-28
2022/08/29 02:50:03;;;;;;;;;;;;;;;27.70;46.66;96908.72;5073009;28;19909;-27
2022/08/29 02:52:28;;;;;;;;;;;;;;;27.70;46.18;96914.28;5073121;28;19935;-28
2022/08/29 02:54:53;;;;;;;;;;;;;;;27.69;46.56;96912.81;5073068;28;20388;-28
2022/08/29 02:57:18;;;;;;;;;;;;;;;27.67;46.79;96909.78;5073167;28;19908;-27
2022/08/29 02:59:44;;;;;;;;;;;;;;;27.66;46.65;96906.25;5073056;28;19927;-27
2022/08/29 03:02:09;;;;;;;;;;;;;;;27.67;46.84;96915.38;5073013;28;19909;-27
2022/08/29 03:04:34;;;;;;;;;;;;;;;27.68;46.46;96912.06;5073624;28;19908;-28
2022/08/29 03:06:59;;;;;;;;;;;;;;;27.70;46.51;96909.47;5076432;28;19908;-29
2022/08/29 03:09:25;;;;;;;;;;;;;;;27.69;46.49;96912.81;5076566;28;19956;-28
2022/08/29 03:11:54;;;;;;;;;;;;;;;27.65;46.89;96917.94;5076194;28;20381;-28
2022/08/29 03:14:20;;;;;;;;;;;;;;;27.66;46.65;96914.63;5076392;28;19909;-29
2022/08/29 03:16:45;;;;;;;;;;;;;;;27.68;46.82;96919.66;5076190;28;20286;-28
2022/08/29 03:19:10;;;;;;;;;;;;;;;27.68;46.91;96923.19;5076112;28;20281;-28
2022/08/29 03:21:36;;;;;;;;;;;;;;;27.66;46.56;96925.75;5076249;28;19912;-28
2022/08/29 03:24:01;;;;;;;;;;;;;;;27.69;46.67;96926.75;5076075;28;20004;-28
2022/08/29 03:26:26;;;;;;;;;;;;;;;27.67;46.56;96929.28;5076234;28;19908;-28
2022/08/29 03:28:52;;;;;;;;;;;;;;;27.67;46.62;96926.50;5076367;28;19915;-28
2022/08/29 03:31:17;;;;;;;;;;;;;;;27.65;46.66;96929.06;5076029;28;20450;-28
2022/08/29 03:33:43;;;;;;;;;;;;;;;27.65;46.94;96921.47;5076125;28;20432;-28
2022/08/29 03:36:09;;;;;;;;;;;;;;;27.65;46.52;96927.03;5075788;28;19916;-28
2022/08/29 03:38:36;;;;;;;;;;;;;;;27.63;46.91;96926.06;5075964;28;20362;-28
2022/08/29 03:41:02;;;;;;;;;;;;;;;27.66;46.72;96930.56;5075995;28;19912;-28
2022/08/29 03:43:27;;;;;;;;;;;;;;;27.64;46.65;96928.31;5075650;28;19921;-27
2022/08/29 03:45:53;;;;;;;;;;;;;;;27.66;46.51;96925.00;5075755;28;19948;-28
2022/08/29 03:48:18;;;;;;;;;;;;;;;27.64;46.88;96916.41;5075563;28;19991;-28
2022/08/29 03:50:44;;;;;;;;;;;;;;;27.63;47.10;96928.84;5075979;28;20295;-29
2022/08/29 03:53:09;;;;;;;;;;;;;;;27.66;46.69;96919.44;5076044;28;19908;-28
2022/08/29 03:55:35;;;;;;;;;;;;;;;27.63;46.85;96932.38;5076065;28;20290;-27
2022/08/29 03:58:00;;;;;;;;;;;;;;;27.64;46.82;96933.88;5075568;28;19923;-27
2022/08/29 04:00:25;;;;;;;;;;;;;;;27.65;46.86;96932.63;5075575;28;19931;-28
2022/08/29 04:02:53;;;;;;;;;;;;;;;27.64;46.73;96930.34;5075366;28;19908;-28
2022/08/29 04:05:19;;;;;;;;;;;;;;;27.60;46.78;96929.91;5075180;28;19916;-28
2022/08/29 04:07:45;;;;;;;;;;;;;;;27.62;47.04;96933.66;5075423;28;19909;-28
2022/08/29 04:10:13;;;;;;;;;;;;;;;27.62;47.03;96922.50;5075248;28;19908;-27
2022/08/29 04:12:38;;;;;;;;;;;;;;;27.61;46.89;96923.03;5075219;28;19915;-27
2022/08/29 04:15:05;;;;;;;;;;;;;;;27.63;46.94;96924.03;5056983;28;19909;-28
2022/08/29 04:17:32;;;;;;;;;;;;;;;27.62;47.20;96930.13;5075288;28;19908;-28
2022/08/29 04:19:57;;;;;;;;;;;;;;;27.60;46.71;96921.53;5075289;28;19919;-27
2022/08/29 04:22:22;;;;;;;;;;;;;;;27.61;46.60;96928.63;5075144;28;19909;-27
2022/08/29 04:24:48;;;;;;;;;;;;;;;27.60;47.04;96929.91;5075228;28;20356;-28
2022/08/29 04:27:13;;;;;;;;;;;;;;;27.60;46.73;96927.09;5074883;28;20000;-27
2022/08/29 04:29:38;;;;;;;;;;;;;;;27.59;46.77;96926.34;5075075;28;19908;-29
2022/08/29 04:32:04;;;;;;;;;;;;;;;27.60;46.83;96938.25;5074814;28;19915;-29
2022/08/29 04:34:29;;;;;;;;;;;;;;;27.60;47.00;96927.09;5075094;28;20281;-27
2022/08/29 04:36:54;;;;;;;;;;;;;;;27.59;46.96;96931.16;5074729;28;20430;-28
2022/08/29 04:39:20;;;;;;;;;;;;;;;27.61;46.53;96934.19;5074677;28;19913;-28
2022/08/29 04:41:45;;;;;;;;;;;;;;;27.58;46.96;96933.19;5074557;28;20043;-28
2022/08/29 04:44:11;;;;;;;;;;;;;;;27.58;46.82;96935.22;5074451;28;19920;-28
2022/08/29 04:46:36;;;;;;;;;;;;;;;27.58;46.59;96940.81;5074479;28;19930;-30
2022/08/29 04:49:02;;;;;;;;;;;;;;;27.57;46.72;96936.53;5074516;28;19915;-30
2022/08/29 04:51:27;;;;;;;;;;;;;;;27.55;46.88;96934.25;5074407;28;19962;-30
2022/08/29 04:53:52;;;;;;;;;;;;;;;27.55;47.00;96925.91;5056419;28;19974;-30
2022/08/29 04:56:19;;;;;;;;;;;;;;;27.59;46.76;96933.97;5074488;28;20378;-28
2022/08/29 04:58:46;;;;;;;;;;;;;;;27.57;46.91;96934.47;5078805;28;19957;-30
2022/08/29 05:01:12;;;;;;;;;;;;;;;27.57;46.63;96926.13;5103668;28;19919;-30
2022/08/29 05:03:37;;;;;;;;;;;;;;;27.56;46.98;96921.09;5092688;28;19911;-28
2022/08/29 05:06:06;;;;;;;;;;;;;;;27.56;46.71;96929.47;5089078;28;20366;-28
2022/08/29 05:08:31;;;;;;;;;;;;;;;27.58;47.07;96932.44;5111538;28;19996;-27
2022/08/29 05:10:56;;;;;;;;;;;;;;;27.58;46.82;96933.19;5112561;28;20011;-29
2022/08/29 05:13:22;;;;;;;;;;;;;;;27.59;46.66;96936.75;5112753;28;19914;-28
2022/08/29 05:15:48;;;;;;;;;;;;;;;27.58;47.06;96936.00;5112782;28;19911;-27
2022/08/29 05:18:13;;;;;;;;;;;;;;;27.56;47.10;96935.78;5097788;28;19998;-28
2022/08/29 05:20:40;;;;;;;;;;;;;;;27.58;46.93;96936.00;5092193;28;20354;-28
2022/08/29 05:23:05;;;;;;;;;;;;;;;27.58;46.68;96944.34;5092029;28;20278;-27
2022/08/29 05:25:31;;;;;;;;;;;;;;;27.59;46.71;96939.53;5073912;28;19912;-30
2022/08/29 05:27:56;;;;;;;;;;;;;;;27.60;46.78;96941.03;5091641;28;19916;-30
2022/08/29 05:30:22;;;;;;;;;;;;;;;27.56;47.09;96940.59;5092137;28;20007;-27
2022/08/29 05:32:47;;;;;;;;;;;;;;;27.54;47.16;96941.84;5092429;28;19916;-27
2022/08/29 05:35:13;;;;;;;;;;;;;;;27.55;47.21;96948.19;5091766;28;19999;-27
2022/08/29 05:37:38;;;;;;;;;;;;;;;27.58;47.34;96946.38;5092035;28;19912;-27
2022/08/29 05:40:04;;;;;;;;;;;;;;;27.57;47.45;96942.84;5091964;28;19946;-27
2022/08/29 05:42:29;;;;;;;;;;;;;;;27.57;47.39;96942.13;5091829;28;20369;-27
2022/08/29 05:44:55;;;;;;;;;;;;;;;27.56;47.28;96944.16;5091856;28;19912;-28
2022/08/29 05:47:21;;;;;;;;;;;;;;;27.55;47.20;96942.59;5091690;28;20385;-27
2022/08/29 05:49:47;;;;;;;;;;;;;;;27.56;46.97;96951.75;5091790;28;20010;-27
2022/08/29 05:52:14;;;;;;;;;;;;;;;27.57;47.02;96945.63;5091643;28;19989;-27
2022/08/29 05:54:40;;;;;;;;;;;;;;;27.58;46.99;96954.75;5105989;28;19908;-28
2022/08/29 05:57:06;;;;;;;;;;;;;;;27.57;47.28;96953.97;5093777;28;20266;-30
2022/08/29 05:59:31;;;;;;;;;;;;;;;27.54;47.22;96950.22;5111934;28;19969;-27
2022/08/29 06:01:57;;;;;;;;;;;;;;;27.57;47.07;96947.69;5112267;28;19914;-28
2022/08/29 06:04:22;;;;;;;;;;;;;;;27.54;47.43;96941.84;5096005;28;20272;-28
2022/08/29 06:06:49;;;;;;;;;;;;;;;27.54;47.41;96950.22;5093671;28;19938;-28
2022/08/29 06:09:14;;;;;;;;;;;;;;;27.56;47.37;96958.06;5093711;28;19977;-31
2022/08/29 06:11:40;;;;;;;;;;;;;;;27.56;47.24;96949.72;5093686;28;20361;-30
2022/08/29 06:14:05;;;;;;;;;;;;;;;27.54;47.60;96955.78;5093652;28;20326;-29
2022/08/29 06:16:31;;;;;;;;;;;;;;;27.52;47.52;96955.56;5093530;28;19916;-27
2022/08/29 06:18:57;;;;;;;;;;;;;;;27.56;47.58;96968.47;5093130;28;19922;-27
2022/08/29 06:21:22;;;;;;;;;;;;;;;27.53;47.83;96956.31;5093488;28;19908;-27
2022/08/29 06:23:48;;;;;;;;;;;;;;;27.52;47.53;96965.94;5093819;28;19908;-29
2022/08/29 06:26:13;;;;;;;;;;;;;;;27.53;47.79;96961.88;5094048;28;19916;-28
2022/08/29 06:28:40;;;;;;;;;;;;;;;27.54;47.61;96955.03;5109255;28;20064;-28
2022/08/29 06:31:12;;;;;;;;;;;;;;;27.57;47.67;96961.63;5105753;28;19934;-27
2022/08/29 06:33:38;;;;;;;;;;;;;;;27.49;48.10;96962.19;5091446;28;19911;-27
2022/08/29 06:36:05;;;;;;;;;;;;;;;27.48;47.97;96963.44;5091638;28;19919;-27
2022/08/29 06:38:30;;;;;;;;;;;;;;;27.53;47.59;96967.44;5091842;28;19942;-27
2022/08/29 06:40:56;;;;;;;;;;;;;;;27.53;47.77;96967.44;5076911;28;20401;-29
2022/08/29 06:43:21;;;;;;;;;;;;;;;27.52;48.07;96974.31;5081962;28;19920;-27
2022/08/29 06:45:47;;;;;;;;;;;;;;;27.51;47.75;96970.00;5115765;28;19927;-28
2022/08/29 06:48:12;;;;;;;;;;;;;;;27.51;48.07;96973.56;5115591;28;20319;-28
2022/08/29 06:50:38;;;;;;;;;;;;;;;27.53;48.08;96973.78;5094705;28;19916;-27
2022/08/29 06:53:04;;;;;;;;;;;;;;;27.53;47.69;96976.56;5094707;28;19958;-27
2022/08/29 06:55:29;;;;;;;;;;;;;;;27.52;48.28;96968.72;5094503;28;19912;-27
2022/08/29 06:57:55;;;;;;;;;;;;;;;27.53;47.84;96970.25;5076820;28;20396;-28
2022/08/29 07:00:21;;;;;;;;;;;;;;;27.49;48.08;96964.97;5094850;28;20019;-27
2022/08/29 07:02:46;;;;;;;;;;;;;;;27.45;47.85;96974.88;5094753;28;19916;-27
2022/08/29 07:05:14;;;;;;;;;;;;;;;27.49;47.78;96976.09;5094974;28;19918;-28
2022/08/29 07:07:40;;;;;;;;;;;;;;;27.47;47.89;96972.34;5094866;28;19926;-28
2022/08/29 07:10:06;;;;;;;;;;;;;;;26.30;52.20;96982.69;5093671;28;19919;-27
2022/08/29 07:12:31;;;;;;;;;;;;;;;26.88;50.26;96987.19;5094411;28;19912;-28
2022/08/29 07:14:56;;;;;;;;;;;;;;;27.17;49.56;96980.84;5094643;28;20365;-27
2022/08/29 07:17:22;;;;;;;;;;;;;;;27.31;48.90;96982.44;5094660;28;19961;-28
2022/08/29 07:19:47;;;;;;;;;;;;;;;27.38;48.45;96984.59;5093640;28;19966;-28
2022/08/29 07:22:12;;;;;;;;;;;;;;;27.41;48.25;96991.16;5093727;28;19912;-28
2022/08/29 07:24:38;;;;;;;;;;;;;;;27.43;48.56;96986.59;5093925;28;19955;-28
2022/08/29 07:27:03;;;;;;;;;;;;;;;27.39;48.25;96993.72;5094375;28;19958;-27
2022/08/29 07:29:28;;;;;;;;;;;;;;;27.43;48.32;96989.38;5092786;28;19908;-28
2022/08/29 07:31:53;;;;;;;;;;;;;;;27.43;48.23;96992.16;5094245;28;19980;-27
2022/08/29 07:34:19;;;;;;;;;;;;;;;27.43;48.27;96992.16;5094214;28;20305;-27
2022/08/29 07:36:44;;;;;;;;;;;;;;;27.39;48.37;96994.47;5091965;28;19911;-28
2022/08/29 07:39:12;;;;;;;;;;;;;;;27.38;48.18;96992.22;5075654;28;19912;-28
2022/08/29 07:41:38;;;;;;;;;;;;;;;27.41;48.49;96994.72;5075821;28;20377;-28
2022/08/29 07:44:04;;;;;;;;;;;;;;;27.34;48.80;96992.50;5074780;28;19916;-27
2022/08/29 07:46:30;;;;;;;;;;;;;;;27.38;48.31;97001.31;5075127;28;20307;-28
2022/08/29 07:48:57;;;;;;;;;;;;;;;27.38;48.38;97001.31;5075803;28;19917;-28
2022/08/29 07:51:25;;;;;;;;;;;;;;;27.32;48.72;97003.44;5074873;28;20259;-28
2022/08/29 07:53:51;;;;;;;;;;;;;;;27.34;48.33;97006.44;5075553;28;20391;-28
2022/08/29 07:56:18;;;;;;;;;;;;;;;27.37;48.47;97005.38;5075537;28;19913;-28
2022/08/29 07:58:43;;;;;;;;;;;;;;;27.37;48.56;97010.94;5075502;28;20334;-27
2022/08/29 08:01:09;;;;;;;;;;;;;;;27.27;48.61;97007.03;5075758;28;19912;-28
2022/08/29 08:03:34;;;;;;;;;;;;;;;27.31;48.63;97007.50;5075476;28;19908;-28
2022/08/29 08:06:00;;;;;;;;;;;;;;;27.30;48.81;97017.13;5075372;28;19912;-27
2022/08/29 08:08:25;;;;;;;;;;;;;;;27.29;49.04;97007.25;5075455;28;20337;-29
2022/08/29 08:10:51;;;;;;;;;;;;;;;27.30;48.88;97008.78;5075471;28;19962;-27
2022/08/29 08:13:16;;;;;;;;;;;;;;;27.36;48.60;97006.66;5075358;28;20366;-27
2022/08/29 08:15:42;;;;;;;;;;;;;;;27.34;49.05;97000.84;5075288;28;19916;-27
2022/08/29 08:18:07;;;;;;;;;;;;;;;27.13;49.03;97002.63;5075196;28;19915;-28
2022/08/29 08:20:34;;;;;;;;;;;;;;;27.05;49.24;97001.72;5057044;28;19912;-27
2022/08/29 08:22:59;;;;;;;;;;;;;;;27.22;49.10;97007.09;5075180;28;19931;-28
2022/08/29 08:25:25;;;;;;;;;;;;;;;27.27;49.14;97012.59;5075030;28;20359;-27
2022/08/29 08:27:50;;;;;;;;;;;;;;;27.26;49.36;97008.31;5075336;28;19999;-28
2022/08/29 08:30:16;;;;;;;;;;;;;;;27.29;49.37;97012.06;5074668;28;20375;-27
2022/08/29 08:32:42;;;;;;;;;;;;;;;27.35;49.60;97015.53;5075171;28;19958;-28
2022/08/29 08:35:07;;;;;;;;;;;;;;;27.36;49.02;97015.00;5074746;28;19915;-28
2022/08/29 08:37:33;;;;;;;;;;;;;;;27.33;49.02;97016.06;5074797;28;19909;-28
2022/08/29 08:39:58;;;;;;;;;;;;;;;27.31;49.29;97015.09;5074554;28;19912;-28
2022/08/29 08:42:41;;;;;;;;;;;;;;;27.38;49.29;97022.84;5074642;28;19908;-28
2022/08/29 08:45:12;;;;;;;;;;;;;;;27.27;49.69;97029.31;5074530;28;19912;-27
2022/08/29 08:47:43;;;;;;;;;;;;;;;27.36;49.00;97022.63;5074526;28;19915;-27
2022/08/29 08:50:11;;;;;;;;;;;;;;;27.37;48.79;97024.88;5074430;28;20374;-27
2022/08/29 08:52:37;;;;;;;;;;;;;;;27.39;49.28;97025.13;5074461;28;19908;-28
2022/08/29 08:55:22;;;;;;;;;;;;;;;27.27;49.25;97023.75;5074664;28;20339;-27
2022/08/29 08:58:00;;;;;;;;;;;;;;;27.12;50.43;97017.84;5073843;28;19995;-27
2022/08/29 09:00:26;;;;;;;;;;;;;;;27.34;49.49;97020.34;5074400;28;19916;-28
2022/08/29 09:02:55;;;;;;;;;;;;;;;27.42;49.17;97029.63;5073374;28;20418;-28
2022/08/29 09:05:39;;;;;;;;;;;;;;;27.45;49.15;97027.81;5056350;28;19908;-28
2022/08/29 09:08:12;;;;;;;;;;;;;;;27.46;48.80;97030.06;5074325;28;19912;-28
2022/08/29 09:10:43;;;;;;;;;;;;;;;27.41;49.35;97036.50;5074306;28;20359;-28
2022/08/29 09:13:20;;;;;;;;;;;;;;;27.26;50.26;97032.63;5073919;28;19919;-28
2022/08/29 09:15:47;;;;;;;;;;;;;;;27.29;49.93;97026.75;5074167;28;19957;-27
2022/08/29 09:18:23;;;;;;;;;;;;;;;27.36;49.55;97031.72;5056367;28;19915;-27
2022/08/29 09:20:48;;;;;;;;;;;;;;;27.40;49.58;97032.19;5074071;28;19912;-27
2022/08/29 09:23:13;;;;;;;;;;;;;;;27.44;49.29;97032.66;5073936;28;19908;-28
2022/08/29 09:25:39;;;;;;;;;;;;;;;27.42;49.99;97029.63;5073850;28;19908;-28
2022/08/29 09:28:05;;;;;;;;;;;;;;;27.46;49.26;97032.09;5073847;28;20256;-28
2022/08/29 09:30:32;;;;;;;;;;;;;;;27.47;49.37;97033.63;5073978;28;19914;-27
2022/08/29 09:33:27;;;;;;;;;;;;;;;27.46;49.37;97030.06;5073848;28;20362;-29
2022/08/29 09:35:54;;;;;;;;;;;;;;;27.48;49.26;97019.16;5038914;28;19958;-28
2022/08/29 09:38:22;;;;;;;;;;;;;;;27.49;48.91;97019.91;5071040;28;19935;-29
2022/08/29 09:41:13;;;;;;;;;;;;;;;27.49;50.18;97022.72;5072353;28;19919;-28
2022/08/29 09:43:39;;;;;;;;;;;;;;;27.26;51.11;97021.47;5073729;28;19924;-28
2022/08/29 09:46:04;;;;;;;;;;;;;;;27.29;50.72;97020.44;5073708;28;19908;-29
2022/08/29 09:48:30;;;;;;;;;;;;;;;27.36;50.04;97023.38;5074176;28;19970;-27
2022/08/29 09:51:09;;;;;;;;;;;;;;;27.44;49.87;97020.75;5073697;28;19915;-27
2022/08/29 09:53:35;;;;;;;;;;;;;;;27.42;49.52;97023.31;5073505;28;19908;-28
2022/08/29 09:56:04;;;;;;;;;;;;;;;27.36;49.89;97017.03;5073625;28;19908;-28
2022/08/29 09:58:33;;;;;;;;;;;;;;;27.32;50.03;97014.56;5073736;28;19943;-28
2022/08/29 10:01:00;;;;;;;;;;;;;;;27.42;49.36;97014.97;5055535;28;19912;-28
2022/08/29 10:03:28;;;;;;;;;;;;;;;27.51;48.95;97015.34;5073406;28;20061;-28
2022/08/29 10:06:13;;;;;;;;;;;;;;;27.53;48.95;97006.47;5073538;28;20324;-28
2022/08/29 10:08:39;;;;;;;;;;;;;;;27.49;49.51;97009.53;5073440;28;19935;-29
2022/08/29 10:11:25;;;;;;;;;;;;;;;27.54;48.65;97013.53;5073492;28;20354;-28
2022/08/29 10:14:06;;;;;;;;;;;;;;;27.47;49.10;97012.09;5074001;28;19954;-27
2022/08/29 10:16:32;;;;;;;;;;;;;;;27.52;48.76;97016.09;5077482;28;20255;-28
2022/08/29 10:19:08;;;;;;;;;;;;;;;27.57;48.72;97012.50;5077445;28;20018;-28
2022/08/29 10:21:45;;;;;;;;;;;;;;;27.59;48.69;97020.31;5077306;28;19908;-27
2022/08/29 10:24:16;;;;;;;;;;;;;;;27.52;49.03;97021.66;5077241;28;19932;-28
2022/08/29 10:27:01;;;;;;;;;;;;;;;27.51;48.90;97018.13;5077286;28;19908;-28
2022/08/29 10:29:38;;;;;;;;;;;;;;;27.56;49.00;97013.03;5077308;28;19913;-28
2022/08/29 10:32:06;;;;;;;;;;;;;;;27.58;48.70;97002.84;5077008;28;19908;-28
2022/08/29 10:34:40;;;;;;;;;;;;;;;27.44;48.93;97004.81;5076963;28;19981;-28
2022/08/29 10:37:21;;;;;;;;;;;;;;;27.47;48.70;97005.75;5076928;28;19912;-28
2022/08/29 10:39:49;;;;;;;;;;;;;;;27.53;48.26;97007.22;5077182;28;19913;-28
2022/08/29 10:42:18;;;;;;;;;;;;;;;27.53;48.49;97004.44;5077164;28;19991;-27
2022/08/29 10:45:01;;;;;;;;;;;;;;;27.50;48.68;97013.06;5037142;28;19917;-29
2022/08/29 10:47:38;;;;;;;;;;;;;;;27.51;48.23;97012.56;5036961;28;19987;-28
2022/08/29 10:50:04;;;;;;;;;;;;;;;27.59;48.27;97020.31;5035848;28;19908;-30
2022/08/29 10:52:48;;;;;;;;;;;;;;;27.56;48.18;97007.47;5036883;28;19909;-28
2022/08/29 10:55:31;;;;;;;;;;;;;;;27.60;47.45;97002.34;5035454;28;20342;-29
2022/08/29 10:58:00;;;;;;;;;;;;;;;27.54;46.99;97007.97;5036686;28;19916;-28
2022/08/29 11:00:37;;;;;;;;;;;;;;;27.59;45.94;97001.59;5036750;28;19913;-28
2022/08/29 11:03:21;;;;;;;;;;;;;;;27.61;46.88;96999.03;5037060;28;19908;-27
2022/08/29 11:05:52;;;;;;;;;;;;;;;27.59;45.97;97003.63;5036475;28;19913;-27
2022/08/29 11:08:29;;;;;;;;;;;;;;;27.58;45.79;96990.97;5036550;28;19908;-29
2022/08/29 11:10:55;;;;;;;;;;;;;;;27.61;45.69;96993.44;5036543;28;19909;-28
2022/08/29 11:13:40;;;;;;;;;;;;;;;27.60;45.79;96991.19;5036437;28;19909;-34
2022/08/29 11:16:12;;;;;;;;;;;;;;;27.55;45.81;96984.41;5036595;28;19917;-35
2022/08/29 11:18:37;;;;;;;;;;;;;;;27.54;45.43;96989.22;5036370;28;19913;-34
2022/08/29 11:21:06;;;;;;;;;;;;;;;27.60;45.80;96997.50;5036743;28;20319;-34
2022/08/29 11:23:37;;;;;;;;;;;;;;;27.62;45.37;96983.06;5036446;28;19916;-34
2022/08/29 11:26:11;;;;;;;;;;;;;;;27.64;45.39;96983.28;5033952;28;19913;-34
2022/08/29 11:28:36;;;;;;;;;;;;;;;27.68;44.86;96989.31;5036814;28;19908;-34
2022/08/29 11:31:20;;;;;;;;;;;;;;;27.64;45.22;96984.03;5036419;28;20254;-35
2022/08/29 11:33:45;;;;;;;;;;;;;;;27.67;45.47;96977.41;5036172;28;19913;-34
2022/08/29 11:36:11;;;;;;;;;;;;;;;27.57;45.36;96978.34;5036221;28;19909;-34
2022/08/29 11:39:05;;;;;;;;;;;;;;;27.59;45.75;96970.19;5036040;28;19915;-34
2022/08/29 11:41:31;;;;;;;;;;;;;;;27.59;45.35;96976.50;5022765;28;20432;-34
2022/08/29 11:44:16;;;;;;;;;;;;;;;27.67;45.10;96976.66;5062952;28;19920;-34
2022/08/29 11:46:44;;;;;;;;;;;;;;;27.66;44.83;96970.34;5065409;28;19915;-34
2022/08/29 11:49:24;;;;;;;;;;;;;;;27.63;44.85;96976.22;5075665;28;20281;-34
2022/08/29 11:51:55;;;;;;;;;;;;;;;27.68;44.89;96967.03;5075768;28;19908;-35
2022/08/29 11:54:23;;;;;;;;;;;;;;;27.69;44.57;96965.75;5075873;28;19909;-34
2022/08/29 11:57:01;;;;;;;;;;;;;;;27.64;44.50;96967.31;5075677;28;19912;-34
2022/08/29 11:59:45;;;;;;;;;;;;;;;27.63;44.45;96954.66;5075557;28;19916;-34
2022/08/29 12:02:30;;;;;;;;;;;;;;;27.65;44.29;96954.16;5075636;28;19998;-34
2022/08/29 12:05:00;;;;;;;;;;;;;;;27.74;43.92;96950.97;5075175;28;20045;-34
2022/08/29 12:07:43;;;;;;;;;;;;;;;27.61;44.05;96950.91;5093449;28;20000;-34
2022/08/29 12:10:24;;;;;;;;;;;;;;;27.67;43.43;96943.22;5095579;28;20345;-35
2022/08/29 12:12:55;;;;;;;;;;;;;;;27.62;44.02;96941.25;5095754;28;19908;-34
2022/08/29 12:15:26;;;;;;;;;;;;;;;27.70;44.04;96944.94;5095221;28;20384;-34
2022/08/29 12:17:53;;;;;;;;;;;;;;;27.67;44.33;96940.44;5095499;28;19909;-34
2022/08/29 12:20:32;;;;;;;;;;;;;;;27.66;44.51;96934.13;5095302;28;19918;-34
2022/08/29 12:23:04;;;;;;;;;;;;;;;27.62;44.24;96932.91;5095417;28;19915;-34
2022/08/29 12:25:44;;;;;;;;;;;;;;;27.72;44.50;96934.78;5095282;28;19912;-34
2022/08/29 12:28:26;;;;;;;;;;;;;;;27.77;44.24;96925.59;5076738;28;20347;-34
2022/08/29 12:30:57;;;;;;;;;;;;;;;27.78;43.72;96931.91;5091661;28;19908;-34
2022/08/29 12:33:26;;;;;;;;;;;;;;;27.80;43.49;96926.56;5066916;28;20456;-34
2022/08/29 12:35:54;;;;;;;;;;;;;;;27.76;43.82;96926.88;5048904;28;20912;-34
2022/08/29 12:38:21;;;;;;;;;;;;;;;27.75;42.97;96928.16;5065194;28;20404;-34
2022/08/29 12:41:05;;;;;;;;;;;;;;;27.65;43.02;96924.25;5067247;28;20007;-34
2022/08/29 12:43:35;;;;;;;;;;;;;;;27.65;43.31;96923.50;5067687;28;19928;-34
2022/08/29 12:46:02;;;;;;;;;;;;;;;27.68;42.76;96922.44;5066396;28;19924;-34
2022/08/29 12:48:34;;;;;;;;;;;;;;;27.73;42.79;96916.03;5067036;28;19916;-34
2022/08/29 12:51:01;;;;;;;;;;;;;;;27.72;42.66;96906.91;5066769;28;19915;-34
2022/08/29 12:53:35;;;;;;;;;;;;;;;27.79;42.31;96900.72;5068021;28;19927;-34